createdAt,value
2024-04-12T00:00:07.000Z,0.0
2024-04-12T00:01:07.000Z,0.0
2024-04-12T00:02:08.000Z,0.0
2024-04-12T00:03:08.000Z,0.1888
2024-04-12T00:04:08.000Z,2.3127999999999997
2024-04-12T00:05:09.000Z,2.36
2024-04-12T00:06:09.000Z,0.9439999999999998
2024-04-12T00:07:09.000Z,2.0296
2024-04-12T00:08:10.000Z,0.0
2024-04-12T00:09:10.000Z,1.18
2024-04-12T00:10:10.000Z,0.28319999999999995
2024-04-12T00:11:10.000Z,0.0
2024-04-12T00:12:11.000Z,0.0
2024-04-12T00:13:11.000Z,0.0
2024-04-12T00:14:11.000Z,0.0472
2024-04-12T00:15:12.000Z,1.6520000000000001
2024-04-12T00:16:12.000Z,0.8967999999999998
2024-04-12T00:17:12.000Z,1.7935999999999996
2024-04-12T00:18:12.000Z,0.0
2024-04-12T00:19:13.000Z,0.3776
2024-04-12T00:20:13.000Z,0.0
2024-04-12T00:21:14.000Z,0.0
2024-04-12T00:22:14.000Z,0.5663999999999999
2024-04-12T00:23:14.000Z,1.4631999999999998
2024-04-12T00:24:14.000Z,0.14159999999999998
2024-04-12T00:25:15.000Z,0.0
2024-04-12T00:26:15.000Z,0.0944
2024-04-12T00:27:15.000Z,0.0
2024-04-12T00:28:16.000Z,0.0
2024-04-12T00:29:16.000Z,0.0944
2024-04-12T00:30:16.000Z,1.9823999999999997
2024-04-12T00:31:17.000Z,2.6903999999999995
2024-04-12T00:32:17.000Z,0.5191999999999999
2024-04-12T00:33:17.000Z,0.0472
2024-04-12T00:34:18.000Z,0.5191999999999999
2024-04-12T00:35:18.000Z,1.416
2024-04-12T00:36:18.000Z,0.0472
2024-04-12T00:37:18.000Z,0.0
2024-04-12T00:38:19.000Z,0.0
2024-04-12T00:39:19.000Z,0.6607999999999999
2024-04-12T00:40:19.000Z,0.23599999999999996
2024-04-12T00:41:20.000Z,0.0
2024-04-12T00:42:20.000Z,0.0
2024-04-12T00:43:20.000Z,0.0472
2024-04-12T00:44:21.000Z,0.6607999999999999
2024-04-12T00:45:21.000Z,1.416
2024-04-12T00:46:21.000Z,0.0
2024-04-12T00:47:21.000Z,0.0
2024-04-12T00:48:22.000Z,0.0
2024-04-12T00:49:22.000Z,0.0
2024-04-12T00:50:22.000Z,0.0
2024-04-12T00:51:23.000Z,0.0
2024-04-12T00:52:23.000Z,0.0
2024-04-12T00:53:23.000Z,0.0
2024-04-12T00:54:23.000Z,0.0
2024-04-12T00:55:24.000Z,0.0
2024-04-12T00:56:24.000Z,0.0944
2024-04-12T00:57:24.000Z,0.6607999999999999
2024-04-12T00:58:25.000Z,0.0
2024-04-12T00:59:25.000Z,0.0
2024-04-12T01:00:25.000Z,0.0
2024-04-12T01:01:26.000Z,0.5191999999999999
2024-04-12T01:02:26.000Z,1.5576
2024-04-12T01:03:26.000Z,0.8495999999999999
2024-04-12T01:04:27.000Z,1.7464
2024-04-12T01:05:27.000Z,0.7552
2024-04-12T01:06:27.000Z,0.5663999999999999
2024-04-12T01:07:28.000Z,0.4719999999999999
2024-04-12T01:08:28.000Z,0.0
2024-04-12T01:09:28.000Z,0.0
2024-04-12T01:10:28.000Z,0.14159999999999998
2024-04-12T01:11:29.000Z,1.2272
2024-04-12T01:12:29.000Z,1.1327999999999998
2024-04-12T01:13:29.000Z,0.0472
2024-04-12T01:14:30.000Z,1.1327999999999998
2024-04-12T01:15:30.000Z,0.0
2024-04-12T01:16:30.000Z,1.6520000000000001
2024-04-12T01:17:31.000Z,0.6136
2024-04-12T01:18:31.000Z,2.0767999999999995
2024-04-12T01:19:31.000Z,0.4719999999999999
2024-04-12T01:20:31.000Z,0.0
2024-04-12T01:21:32.000Z,0.0
2024-04-12T01:22:32.000Z,0.0472
2024-04-12T01:23:32.000Z,0.0472
2024-04-12T01:24:33.000Z,0.0
2024-04-12T01:25:33.000Z,0.42479999999999996
2024-04-12T01:26:33.000Z,0.0
2024-04-12T01:27:34.000Z,0.42479999999999996
2024-04-12T01:28:34.000Z,0.23599999999999996
2024-04-12T01:29:34.000Z,0.0944
2024-04-12T01:30:35.000Z,0.0
2024-04-12T01:31:35.000Z,0.0
2024-04-12T01:32:35.000Z,0.0
2024-04-12T01:33:36.000Z,0.3776
2024-04-12T01:34:36.000Z,0.0472
2024-04-12T01:35:36.000Z,0.0
2024-04-12T01:36:36.000Z,0.0944
2024-04-12T01:37:37.000Z,1.2744
2024-04-12T01:38:37.000Z,1.3215999999999999
2024-04-12T01:39:37.000Z,0.0
2024-04-12T01:40:38.000Z,0.0472
2024-04-12T01:41:38.000Z,1.4631999999999998
2024-04-12T01:42:38.000Z,0.9911999999999999
2024-04-12T01:43:38.000Z,1.2272
2024-04-12T01:44:39.000Z,0.5191999999999999
2024-04-12T01:45:39.000Z,0.23599999999999996
2024-04-12T01:46:39.000Z,1.5104
2024-04-12T01:47:40.000Z,0.9439999999999998
2024-04-12T01:48:40.000Z,1.6991999999999998
2024-04-12T01:49:40.000Z,0.23599999999999996
2024-04-12T01:50:41.000Z,1.4631999999999998
2024-04-12T01:51:41.000Z,0.8495999999999999
2024-04-12T01:52:41.000Z,0.0472
2024-04-12T01:53:41.000Z,0.0
2024-04-12T01:54:42.000Z,0.7552
2024-04-12T01:55:42.000Z,2.6903999999999995
2024-04-12T01:56:42.000Z,0.5191999999999999
2024-04-12T01:57:42.000Z,0.0
2024-04-12T01:58:43.000Z,0.6136
2024-04-12T01:59:43.000Z,0.0472
2024-04-12T02:00:43.000Z,0.0472
2024-04-12T02:01:44.000Z,0.0944
2024-04-12T02:02:44.000Z,0.0
2024-04-12T02:03:45.000Z,1.9351999999999998
2024-04-12T02:04:45.000Z,1.6047999999999998
2024-04-12T02:05:45.000Z,1.0856
2024-04-12T02:06:46.000Z,0.28319999999999995
2024-04-12T02:07:46.000Z,1.3687999999999998
2024-04-12T02:08:46.000Z,1.8408
2024-04-12T02:09:46.000Z,2.1712
2024-04-12T02:10:47.000Z,0.9911999999999999
2024-04-12T02:11:47.000Z,1.6520000000000001
2024-04-12T02:12:47.000Z,1.0856
2024-04-12T02:13:48.000Z,0.5663999999999999
2024-04-12T02:14:48.000Z,0.23599999999999996
2024-04-12T02:15:48.000Z,0.0472
2024-04-12T02:16:49.000Z,0.0944
2024-04-12T02:17:49.000Z,0.0472
2024-04-12T02:18:49.000Z,0.5191999999999999
2024-04-12T02:19:50.000Z,0.4719999999999999
2024-04-12T02:20:50.000Z,0.23599999999999996
2024-04-12T02:21:50.000Z,0.0
2024-04-12T02:22:51.000Z,0.0
2024-04-12T02:23:51.000Z,0.0
2024-04-12T02:24:51.000Z,2.0767999999999995
2024-04-12T02:25:52.000Z,1.5576
2024-04-12T02:26:52.000Z,0.33039999999999997
2024-04-12T02:27:52.000Z,0.0
2024-04-12T02:28:53.000Z,0.0472
2024-04-12T02:29:53.000Z,0.0
2024-04-12T02:30:53.000Z,0.0
2024-04-12T02:31:53.000Z,0.0472
2024-04-12T02:32:54.000Z,0.0944
2024-04-12T02:33:54.000Z,0.23599999999999996
2024-04-12T02:34:54.000Z,0.4719999999999999
2024-04-12T02:35:55.000Z,0.8967999999999998
2024-04-12T02:36:55.000Z,0.0472
2024-04-12T02:37:55.000Z,0.0
2024-04-12T02:38:56.000Z,0.0
2024-04-12T02:39:56.000Z,0.0
2024-04-12T02:40:56.000Z,0.0
2024-04-12T02:41:57.000Z,0.4719999999999999
2024-04-12T02:42:57.000Z,0.5663999999999999
2024-04-12T02:43:57.000Z,1.9351999999999998
2024-04-12T02:44:58.000Z,0.33039999999999997
2024-04-12T02:45:58.000Z,0.0
2024-04-12T02:46:58.000Z,0.0944
2024-04-12T02:47:58.000Z,0.0
2024-04-12T02:48:59.000Z,1.416
2024-04-12T02:49:59.000Z,0.8967999999999998
2024-04-12T02:50:59.000Z,0.5191999999999999
2024-04-12T02:51:59.000Z,0.0
2024-04-12T02:53:00.000Z,0.23599999999999996
2024-04-12T02:54:00.000Z,0.7552
2024-04-12T02:55:00.000Z,0.0
2024-04-12T02:56:01.000Z,0.0
2024-04-12T02:57:01.000Z,0.0472
2024-04-12T02:58:01.000Z,0.0
2024-04-12T02:59:02.000Z,0.33039999999999997
2024-04-12T03:00:02.000Z,0.14159999999999998
2024-04-12T03:01:02.000Z,0.0
2024-04-12T03:02:03.000Z,0.0
2024-04-12T03:03:03.000Z,0.0
2024-04-12T03:04:03.000Z,1.5104
2024-04-12T03:05:03.000Z,0.0472
2024-04-12T03:06:04.000Z,0.0
2024-04-12T03:07:04.000Z,0.0
2024-04-12T03:08:04.000Z,0.0
2024-04-12T03:09:05.000Z,0.0
2024-04-12T03:10:05.000Z,0.0
2024-04-12T03:11:05.000Z,0.0
2024-04-12T03:12:06.000Z,0.0
2024-04-12T03:13:06.000Z,0.0
2024-04-12T03:14:06.000Z,0.0
2024-04-12T03:15:07.000Z,0.0
2024-04-12T03:16:07.000Z,0.0
2024-04-12T03:17:07.000Z,0.0
2024-04-12T03:18:08.000Z,0.0
2024-04-12T03:19:08.000Z,0.0
2024-04-12T03:20:08.000Z,0.0
2024-04-12T03:21:08.000Z,0.0
2024-04-12T03:22:09.000Z,0.0
2024-04-12T03:23:09.000Z,0.0
2024-04-12T03:24:09.000Z,0.0
2024-04-12T03:25:10.000Z,0.0
2024-04-12T03:26:10.000Z,0.0
2024-04-12T03:27:10.000Z,0.0
2024-04-12T03:28:11.000Z,0.0
2024-04-12T03:29:11.000Z,0.0
2024-04-12T03:30:11.000Z,0.0
2024-04-12T03:31:12.000Z,0.0
2024-04-12T03:32:12.000Z,0.0
2024-04-12T03:33:12.000Z,0.0472
2024-04-12T03:34:13.000Z,0.6136
2024-04-12T03:35:13.000Z,0.0
2024-04-12T03:36:13.000Z,0.0
2024-04-12T03:37:13.000Z,0.0
2024-04-12T03:38:14.000Z,0.0
2024-04-12T03:39:14.000Z,0.0
2024-04-12T03:40:14.000Z,0.0
2024-04-12T03:41:15.000Z,0.0
2024-04-12T03:42:15.000Z,0.0
2024-04-12T03:43:15.000Z,0.0
2024-04-12T03:44:15.000Z,0.8023999999999999
2024-04-12T03:45:16.000Z,1.18
2024-04-12T03:46:16.000Z,0.0944
2024-04-12T03:47:16.000Z,0.0
2024-04-12T03:48:17.000Z,0.0
2024-04-12T03:49:17.000Z,0.9439999999999998
2024-04-12T03:50:17.000Z,0.0
2024-04-12T03:51:17.000Z,0.0
2024-04-12T03:52:18.000Z,0.0472
2024-04-12T03:53:18.000Z,0.1888
2024-04-12T03:54:18.000Z,0.9911999999999999
2024-04-12T03:55:19.000Z,0.33039999999999997
2024-04-12T03:56:19.000Z,0.0
2024-04-12T03:57:19.000Z,0.0
2024-04-12T03:58:20.000Z,0.0
2024-04-12T03:59:20.000Z,0.0472
2024-04-12T04:00:20.000Z,0.0
2024-04-12T04:01:20.000Z,0.0
2024-04-12T04:02:21.000Z,0.0
2024-04-12T04:03:21.000Z,0.0472
2024-04-12T04:04:21.000Z,0.0
2024-04-12T04:05:21.000Z,0.0
2024-04-12T04:06:22.000Z,0.0
2024-04-12T04:07:22.000Z,0.0
2024-04-12T04:08:22.000Z,0.0
2024-04-12T04:09:23.000Z,0.0
2024-04-12T04:10:23.000Z,0.0472
2024-04-12T04:11:23.000Z,0.14159999999999998
2024-04-12T04:12:24.000Z,0.0
2024-04-12T04:13:24.000Z,0.5663999999999999
2024-04-12T04:14:24.000Z,2.2655999999999996
2024-04-12T04:15:25.000Z,3.2095999999999996
2024-04-12T04:16:25.000Z,1.0383999999999998
2024-04-12T04:17:25.000Z,1.1327999999999998
2024-04-12T04:18:26.000Z,0.6607999999999999
2024-04-12T04:19:26.000Z,0.28319999999999995
2024-04-12T04:20:26.000Z,1.0383999999999998
2024-04-12T04:21:26.000Z,1.6991999999999998
2024-04-12T04:22:27.000Z,1.9823999999999997
2024-04-12T04:23:27.000Z,1.4631999999999998
2024-04-12T04:24:27.000Z,2.1239999999999997
2024-04-12T04:25:28.000Z,1.8879999999999997
2024-04-12T04:26:28.000Z,0.8495999999999999
2024-04-12T04:27:29.000Z,1.6047999999999998
2024-04-12T04:28:29.000Z,1.0856
2024-04-12T04:29:29.000Z,1.6047999999999998
2024-04-12T04:30:29.000Z,0.9439999999999998
2024-04-12T04:31:30.000Z,0.0472
2024-04-12T04:32:30.000Z,0.0
2024-04-12T04:33:30.000Z,0.0472
2024-04-12T04:34:31.000Z,0.0
2024-04-12T04:35:31.000Z,0.0
2024-04-12T04:36:31.000Z,0.0
2024-04-12T04:37:32.000Z,0.0472
2024-04-12T04:38:32.000Z,0.0
2024-04-12T04:39:32.000Z,0.0
2024-04-12T04:40:32.000Z,0.1888
2024-04-12T04:41:33.000Z,0.0472
2024-04-12T04:42:33.000Z,0.0
2024-04-12T04:43:33.000Z,0.0
2024-04-12T04:44:34.000Z,0.0
2024-04-12T04:45:34.000Z,0.5663999999999999
2024-04-12T04:46:34.000Z,0.7552
2024-04-12T04:47:35.000Z,0.0472
2024-04-12T04:48:35.000Z,0.0
2024-04-12T04:49:35.000Z,0.0
2024-04-12T04:50:35.000Z,0.0
2024-04-12T04:51:36.000Z,0.0
2024-04-12T04:52:36.000Z,0.0
2024-04-12T04:53:36.000Z,0.0472
2024-04-12T04:54:37.000Z,0.0472
2024-04-12T04:55:37.000Z,0.0
2024-04-12T04:56:37.000Z,0.0
2024-04-12T04:57:38.000Z,0.0472
2024-04-12T04:58:38.000Z,1.0383999999999998
2024-04-12T04:59:38.000Z,0.3776
2024-04-12T05:00:38.000Z,1.5576
2024-04-12T05:01:39.000Z,0.0
2024-04-12T05:02:39.000Z,0.0472
2024-04-12T05:03:39.000Z,0.0
2024-04-12T05:04:40.000Z,0.0
2024-04-12T05:05:40.000Z,0.5191999999999999
2024-04-12T05:06:40.000Z,1.7935999999999996
2024-04-12T05:07:41.000Z,2.0767999999999995
2024-04-12T05:08:41.000Z,2.1239999999999997
2024-04-12T05:09:41.000Z,2.9263999999999997
2024-04-12T05:10:42.000Z,2.2184
2024-04-12T05:11:42.000Z,1.7935999999999996
2024-04-12T05:12:42.000Z,1.3687999999999998
2024-04-12T05:13:43.000Z,3.2095999999999996
2024-04-12T05:14:43.000Z,1.5576
2024-04-12T05:15:43.000Z,1.6520000000000001
2024-04-12T05:16:44.000Z,1.7935999999999996
2024-04-12T05:17:44.000Z,2.5959999999999996
2024-04-12T05:18:44.000Z,2.1712
2024-04-12T05:19:45.000Z,2.4544
2024-04-12T05:20:45.000Z,1.7464
2024-04-12T05:21:45.000Z,3.2095999999999996
2024-04-12T05:22:45.000Z,2.9263999999999997
2024-04-12T05:23:46.000Z,3.5871999999999993
2024-04-12T05:24:46.000Z,3.7287999999999992
2024-04-12T05:25:46.000Z,3.7287999999999992
2024-04-12T05:26:47.000Z,3.6344
2024-04-12T05:27:47.000Z,2.9736
2024-04-12T05:28:48.000Z,4.153599999999999
2024-04-12T05:29:48.000Z,3.5871999999999993
2024-04-12T05:30:48.000Z,3.1152
2024-04-12T05:31:48.000Z,3.4928
2024-04-12T05:32:49.000Z,4.6728
2024-04-12T05:33:49.000Z,4.0592
2024-04-12T05:34:49.000Z,4.247999999999999
2024-04-12T05:35:50.000Z,4.3424
2024-04-12T05:36:50.000Z,3.54
2024-04-12T05:37:50.000Z,4.4368
2024-04-12T05:38:51.000Z,5.852799999999999
2024-04-12T05:39:51.000Z,4.2008
2024-04-12T05:40:51.000Z,5.0976
2024-04-12T05:41:52.000Z,4.6255999999999995
2024-04-12T05:42:52.000Z,5.9944
2024-04-12T05:43:52.000Z,5.522399999999999
2024-04-12T05:44:53.000Z,5.191999999999999
2024-04-12T05:45:53.000Z,5.380799999999999
2024-04-12T05:46:53.000Z,6.6080000000000005
2024-04-12T05:47:54.000Z,6.655199999999999
2024-04-12T05:48:54.000Z,5.9944
2024-04-12T05:49:54.000Z,4.2008
2024-04-12T05:50:55.000Z,6.3248
2024-04-12T05:51:55.000Z,5.003199999999999
2024-04-12T05:52:55.000Z,6.2776
2024-04-12T05:53:55.000Z,6.796799999999999
2024-04-12T05:54:56.000Z,3.5871999999999993
2024-04-12T05:55:56.000Z,5.380799999999999
2024-04-12T05:56:56.000Z,2.7375999999999996
2024-04-12T05:57:57.000Z,4.247999999999999
2024-04-12T05:58:57.000Z,2.5488
2024-04-12T05:59:57.000Z,1.6991999999999998
2024-04-12T06:00:57.000Z,2.2184
2024-04-12T06:01:58.000Z,3.5871999999999993
2024-04-12T06:02:58.000Z,4.0592
2024-04-12T06:03:58.000Z,0.23599999999999996
2024-04-12T06:04:59.000Z,3.6344
2024-04-12T06:05:59.000Z,5.144799999999999
2024-04-12T06:06:59.000Z,4.6255999999999995
2024-04-12T06:08:00.000Z,3.7287999999999992
2024-04-12T06:09:00.000Z,6.513599999999999
2024-04-12T06:10:00.000Z,6.843999999999999
2024-04-12T06:11:00.000Z,4.0592
2024-04-12T06:12:01.000Z,3.54
2024-04-12T06:13:01.000Z,7.127199999999999
2024-04-12T06:14:01.000Z,5.664
2024-04-12T06:15:02.000Z,2.9736
2024-04-12T06:16:02.000Z,1.9823999999999997
2024-04-12T06:17:02.000Z,1.18
2024-04-12T06:18:03.000Z,4.012
2024-04-12T06:19:03.000Z,5.522399999999999
2024-04-12T06:20:03.000Z,5.333599999999999
2024-04-12T06:21:03.000Z,4.3424
2024-04-12T06:22:04.000Z,6.135999999999999
2024-04-12T06:23:04.000Z,5.7112
2024-04-12T06:24:04.000Z,3.9647999999999994
2024-04-12T06:25:05.000Z,5.8999999999999995
2024-04-12T06:26:05.000Z,3.1624
2024-04-12T06:27:05.000Z,3.1624
2024-04-12T06:28:06.000Z,5.427999999999999
2024-04-12T06:29:06.000Z,5.805599999999998
2024-04-12T06:30:06.000Z,6.135999999999999
2024-04-12T06:31:07.000Z,6.5608
2024-04-12T06:32:07.000Z,5.805599999999998
2024-04-12T06:33:07.000Z,5.6168
2024-04-12T06:34:07.000Z,5.144799999999999
2024-04-12T06:35:08.000Z,5.144799999999999
2024-04-12T06:36:08.000Z,7.174399999999999
2024-04-12T06:37:08.000Z,4.9559999999999995
2024-04-12T06:38:09.000Z,5.427999999999999
2024-04-12T06:39:09.000Z,4.247999999999999
2024-04-12T06:40:09.000Z,3.8232
2024-04-12T06:41:10.000Z,5.9472
2024-04-12T06:42:10.000Z,5.2863999999999995
2024-04-12T06:43:10.000Z,5.333599999999999
2024-04-12T06:44:11.000Z,4.531199999999999
2024-04-12T06:45:11.000Z,5.569599999999999
2024-04-12T06:46:11.000Z,6.466399999999999
2024-04-12T06:47:12.000Z,7.929599999999999
2024-04-12T06:48:12.000Z,5.475199999999999
2024-04-12T06:49:12.000Z,5.522399999999999
2024-04-12T06:50:13.000Z,5.2392
2024-04-12T06:51:13.000Z,5.6168
2024-04-12T06:52:13.000Z,2.9736
2024-04-12T06:53:14.000Z,5.380799999999999
2024-04-12T06:54:14.000Z,4.4368
2024-04-12T06:55:14.000Z,5.144799999999999
2024-04-12T06:56:15.000Z,7.551999999999999
2024-04-12T06:57:15.000Z,6.3248
2024-04-12T06:58:15.000Z,5.9944
2024-04-12T06:59:16.000Z,7.740799999999999
2024-04-12T07:00:16.000Z,6.702399999999999
2024-04-12T07:01:16.000Z,7.6936
2024-04-12T07:02:17.000Z,2.8792
2024-04-12T07:03:17.000Z,2.5488
2024-04-12T07:04:17.000Z,2.7375999999999996
2024-04-12T07:05:18.000Z,4.8144
2024-04-12T07:06:18.000Z,3.1624
2024-04-12T07:07:18.000Z,3.8232
2024-04-12T07:08:19.000Z,1.3215999999999999
2024-04-12T07:09:19.000Z,2.3127999999999997
2024-04-12T07:10:19.000Z,3.8703999999999996
2024-04-12T07:11:20.000Z,3.3040000000000003
2024-04-12T07:12:20.000Z,3.7287999999999992
2024-04-12T07:13:20.000Z,3.1152
2024-04-12T07:14:20.000Z,2.5015999999999994
2024-04-12T07:15:21.000Z,3.7287999999999992
2024-04-12T07:16:21.000Z,3.2567999999999997
2024-04-12T07:17:21.000Z,2.4072
2024-04-12T07:18:22.000Z,2.4072
2024-04-12T07:19:22.000Z,0.8495999999999999
2024-04-12T07:20:22.000Z,1.5576
2024-04-12T07:21:23.000Z,2.1712
2024-04-12T07:22:23.000Z,2.832
2024-04-12T07:23:23.000Z,0.0
2024-04-12T07:24:23.000Z,4.153599999999999
2024-04-12T07:25:24.000Z,3.7287999999999992
2024-04-12T07:26:24.000Z,2.36
2024-04-12T07:27:24.000Z,3.1624
2024-04-12T07:28:25.000Z,5.2863999999999995
2024-04-12T07:29:25.000Z,2.36
2024-04-12T07:30:25.000Z,2.832
2024-04-12T07:31:25.000Z,2.5959999999999996
2024-04-12T07:32:26.000Z,5.2863999999999995
2024-04-12T07:33:26.000Z,1.9351999999999998
2024-04-12T07:34:26.000Z,2.5488
2024-04-12T07:35:27.000Z,4.3424
2024-04-12T07:36:27.000Z,2.5488
2024-04-12T07:37:27.000Z,3.4455999999999993
2024-04-12T07:38:27.000Z,1.7464
2024-04-12T07:39:28.000Z,3.9647999999999994
2024-04-12T07:40:28.000Z,3.4928
2024-04-12T07:41:28.000Z,0.0
2024-04-12T07:42:29.000Z,2.8792
2024-04-12T07:43:29.000Z,1.6520000000000001
2024-04-12T07:44:29.000Z,0.6607999999999999
2024-04-12T07:45:30.000Z,2.1712
2024-04-12T07:46:30.000Z,3.1624
2024-04-12T07:47:30.000Z,2.0296
2024-04-12T07:48:31.000Z,1.9823999999999997
2024-04-12T07:49:31.000Z,3.1152
2024-04-12T07:50:31.000Z,2.6431999999999998
2024-04-12T07:51:31.000Z,4.2951999999999995
2024-04-12T07:52:32.000Z,1.6991999999999998
2024-04-12T07:53:32.000Z,1.18
2024-04-12T07:54:32.000Z,5.569599999999999
2024-04-12T07:55:33.000Z,1.8879999999999997
2024-04-12T07:56:33.000Z,0.9439999999999998
2024-04-12T07:57:33.000Z,3.9175999999999997
2024-04-12T07:58:33.000Z,4.2951999999999995
2024-04-12T07:59:34.000Z,1.2272
2024-04-12T08:00:34.000Z,0.6136
2024-04-12T08:01:34.000Z,3.6816
2024-04-12T08:02:35.000Z,4.8144
2024-04-12T08:03:35.000Z,1.2744
2024-04-12T08:04:35.000Z,2.6903999999999995
2024-04-12T08:05:36.000Z,1.0383999999999998
2024-04-12T08:06:36.000Z,0.8495999999999999
2024-04-12T08:07:36.000Z,1.8879999999999997
2024-04-12T08:08:36.000Z,1.9823999999999997
2024-04-12T08:09:37.000Z,4.7672
2024-04-12T08:10:37.000Z,3.4455999999999993
2024-04-12T08:11:37.000Z,3.2567999999999997
2024-04-12T08:12:38.000Z,1.0856
2024-04-12T08:13:38.000Z,0.5663999999999999
2024-04-12T08:14:38.000Z,4.153599999999999
2024-04-12T08:15:39.000Z,3.4455999999999993
2024-04-12T08:16:39.000Z,2.1712
2024-04-12T08:17:39.000Z,0.23599999999999996
2024-04-12T08:18:40.000Z,1.7935999999999996
2024-04-12T08:19:40.000Z,3.6344
2024-04-12T08:20:40.000Z,5.664
2024-04-12T08:21:40.000Z,2.2184
2024-04-12T08:22:41.000Z,4.9559999999999995
2024-04-12T08:23:41.000Z,3.6816
2024-04-12T08:24:41.000Z,4.7672
2024-04-12T08:25:42.000Z,4.9559999999999995
2024-04-12T08:26:42.000Z,4.3424
2024-04-12T08:27:42.000Z,3.9175999999999997
2024-04-12T08:28:43.000Z,6.702399999999999
2024-04-12T08:29:43.000Z,3.6816
2024-04-12T08:30:43.000Z,4.6728
2024-04-12T08:31:44.000Z,3.3040000000000003
2024-04-12T08:32:44.000Z,4.012
2024-04-12T08:33:44.000Z,1.2744
2024-04-12T08:34:45.000Z,3.4928
2024-04-12T08:35:45.000Z,2.1712
2024-04-12T08:36:45.000Z,0.0
2024-04-12T08:37:46.000Z,2.4072
2024-04-12T08:38:46.000Z,5.522399999999999
2024-04-12T08:39:46.000Z,5.333599999999999
2024-04-12T08:40:47.000Z,3.8232
2024-04-12T08:41:47.000Z,3.3040000000000003
2024-04-12T08:42:47.000Z,0.7552
2024-04-12T08:43:47.000Z,5.003199999999999
2024-04-12T08:44:48.000Z,5.852799999999999
2024-04-12T08:45:48.000Z,4.531199999999999
2024-04-12T08:46:48.000Z,2.4072
2024-04-12T08:47:49.000Z,1.7935999999999996
2024-04-12T08:48:49.000Z,4.6255999999999995
2024-04-12T08:49:49.000Z,3.4928
2024-04-12T08:50:50.000Z,4.861599999999999
2024-04-12T08:51:50.000Z,5.0976
2024-04-12T08:52:50.000Z,6.9856
2024-04-12T08:53:51.000Z,4.531199999999999
2024-04-12T08:54:51.000Z,5.475199999999999
2024-04-12T08:55:51.000Z,2.7847999999999997
2024-04-12T08:56:52.000Z,6.9384
2024-04-12T08:57:52.000Z,10.855999999999998
2024-04-12T08:58:52.000Z,11.7528
2024-04-12T08:59:53.000Z,7.221599999999999
2024-04-12T09:00:53.000Z,4.6728
2024-04-12T09:01:53.000Z,4.1064
2024-04-12T09:02:54.000Z,7.4104
2024-04-12T09:03:54.000Z,4.9088
2024-04-12T09:04:54.000Z,3.3511999999999995
2024-04-12T09:05:54.000Z,4.1064
2024-04-12T09:06:55.000Z,7.0328
2024-04-12T09:07:55.000Z,7.4104
2024-04-12T09:08:55.000Z,1.3687999999999998
2024-04-12T09:09:56.000Z,3.6816
2024-04-12T09:10:56.000Z,9.581599999999998
2024-04-12T09:11:56.000Z,6.135999999999999
2024-04-12T09:12:57.000Z,5.003199999999999
2024-04-12T09:13:57.000Z,4.4368
2024-04-12T09:14:57.000Z,2.7847999999999997
2024-04-12T09:15:58.000Z,0.0
2024-04-12T09:16:58.000Z,9.251199999999999
2024-04-12T09:17:58.000Z,14.5376
2024-04-12T09:18:59.000Z,7.976800000000001
2024-04-12T09:19:59.000Z,2.2184
2024-04-12T09:20:59.000Z,4.0592
2024-04-12T09:22:00.000Z,6.9856
2024-04-12T09:23:00.000Z,4.012
2024-04-12T09:24:00.000Z,3.8232
2024-04-12T09:25:01.000Z,9.487199999999998
2024-04-12T09:26:01.000Z,7.0328
2024-04-12T09:27:01.000Z,9.3928
2024-04-12T09:28:02.000Z,8.2128
2024-04-12T09:29:02.000Z,10.0536
2024-04-12T09:30:02.000Z,11.091999999999997
2024-04-12T09:31:03.000Z,5.522399999999999
2024-04-12T09:32:03.000Z,11.469599999999998
2024-04-12T09:33:03.000Z,7.3632
2024-04-12T09:34:03.000Z,5.0976
2024-04-12T09:35:04.000Z,5.333599999999999
2024-04-12T09:36:04.000Z,6.1831999999999985
2024-04-12T09:37:04.000Z,5.144799999999999
2024-04-12T09:38:05.000Z,4.9559999999999995
2024-04-12T09:39:05.000Z,5.003199999999999
2024-04-12T09:40:05.000Z,3.8232
2024-04-12T09:41:06.000Z,2.5488
2024-04-12T09:42:06.000Z,5.6168
2024-04-12T09:43:06.000Z,4.153599999999999
2024-04-12T09:44:06.000Z,3.3511999999999995
2024-04-12T09:45:07.000Z,6.749599999999999
2024-04-12T09:46:07.000Z,9.6288
2024-04-12T09:47:07.000Z,4.153599999999999
2024-04-12T09:48:08.000Z,4.6728
2024-04-12T09:49:08.000Z,7.551999999999999
2024-04-12T09:50:08.000Z,9.203999999999999
2024-04-12T09:51:08.000Z,7.3632
2024-04-12T09:52:09.000Z,8.732
2024-04-12T09:53:09.000Z,7.551999999999999
2024-04-12T09:54:09.000Z,6.843999999999999
2024-04-12T09:55:10.000Z,10.667199999999998
2024-04-12T09:56:10.000Z,6.796799999999999
2024-04-12T09:57:10.000Z,11.044799999999999
2024-04-12T09:58:10.000Z,6.371999999999999
2024-04-12T09:59:11.000Z,8.732
2024-04-12T10:00:11.000Z,8.495999999999999
2024-04-12T10:01:11.000Z,8.9208
2024-04-12T10:02:12.000Z,8.0712
2024-04-12T10:03:12.000Z,5.569599999999999
2024-04-12T10:04:12.000Z,7.221599999999999
2024-04-12T10:05:12.000Z,3.7287999999999992
2024-04-12T10:06:13.000Z,2.2655999999999996
2024-04-12T10:07:13.000Z,2.7375999999999996
2024-04-12T10:08:13.000Z,7.221599999999999
2024-04-12T10:09:14.000Z,3.0679999999999996
2024-04-12T10:10:14.000Z,3.8703999999999996
2024-04-12T10:11:14.000Z,4.6255999999999995
2024-04-12T10:12:15.000Z,1.3687999999999998
2024-04-12T10:13:15.000Z,4.1064
2024-04-12T10:14:15.000Z,6.2776
2024-04-12T10:15:16.000Z,5.0504
2024-04-12T10:16:16.000Z,3.1624
2024-04-12T10:17:16.000Z,5.0504
2024-04-12T10:18:17.000Z,5.2863999999999995
2024-04-12T10:19:17.000Z,2.7375999999999996
2024-04-12T10:20:17.000Z,2.4544
2024-04-12T10:21:18.000Z,3.6344
2024-04-12T10:22:18.000Z,2.4544
2024-04-12T10:23:18.000Z,7.08
2024-04-12T10:24:19.000Z,6.513599999999999
2024-04-12T10:25:19.000Z,6.655199999999999
2024-04-12T10:26:19.000Z,4.9088
2024-04-12T10:27:20.000Z,4.0592
2024-04-12T10:28:20.000Z,5.569599999999999
2024-04-12T10:29:20.000Z,4.861599999999999
2024-04-12T10:30:21.000Z,6.1831999999999985
2024-04-12T10:31:21.000Z,4.3424
2024-04-12T10:32:21.000Z,6.2304
2024-04-12T10:33:22.000Z,6.655199999999999
2024-04-12T10:34:22.000Z,7.551999999999999
2024-04-12T10:35:22.000Z,4.4368
2024-04-12T10:36:23.000Z,5.2392
2024-04-12T10:37:23.000Z,8.4488
2024-04-12T10:38:23.000Z,8.543199999999999
2024-04-12T10:39:23.000Z,7.4575999999999985
2024-04-12T10:40:24.000Z,5.0976
2024-04-12T10:41:24.000Z,8.024
2024-04-12T10:42:24.000Z,6.3248
2024-04-12T10:43:25.000Z,10.431199999999999
2024-04-12T10:44:25.000Z,9.8176
2024-04-12T10:45:25.000Z,7.787999999999999
2024-04-12T10:46:25.000Z,4.9559999999999995
2024-04-12T10:47:26.000Z,1.6991999999999998
2024-04-12T10:48:26.000Z,3.6816
2024-04-12T10:49:26.000Z,4.72
2024-04-12T10:50:27.000Z,3.4455999999999993
2024-04-12T10:51:27.000Z,3.2095999999999996
2024-04-12T10:52:27.000Z,3.6816
2024-04-12T10:53:28.000Z,2.36
2024-04-12T10:54:28.000Z,3.2095999999999996
2024-04-12T10:55:29.000Z,4.72
2024-04-12T10:56:29.000Z,3.3040000000000003
2024-04-12T10:57:29.000Z,2.2184
2024-04-12T10:58:30.000Z,2.5488
2024-04-12T10:59:30.000Z,4.9559999999999995
2024-04-12T11:00:30.000Z,3.4455999999999993
2024-04-12T11:01:30.000Z,3.54